sensor_id;sensor_type;location;lat;lon;timestamp;temperature;humidity
29939;DHT22;16799;50.844;5.304;2022-11-20T00:00:04;4.70;99.90
29939;DHT22;16799;50.844;5.304;2022-11-20T00:02:29;4.60;99.90
29939;DHT22;16799;50.844;5.304;2022-11-20T00:04:55;4.60;99.90
29939;DHT22;16799;50.844;5.304;2022-11-20T00:07:21;4.60;99.90
29939;DHT22;16799;50.844;5.304;2022-11-20T00:09:46;4.60;99.90
29939;DHT22;16799;50.844;5.304;2022-11-20T00:12:12;4.60;99.90
29939;DHT22;16799;50.844;5.304;2022-11-20T00:14:38;4.70;99.90
29939;DHT22;16799;50.844;5.304;2022-11-20T00:17:04;4.70;99.90
29939;DHT22;16799;50.844;5.304;2022-11-20T00:19:30;4.60;99.90
29939;DHT22;16799;50.844;5.304;2022-11-20T00:21:55;4.70;99.90
29939;DHT22;16799;50.844;5.304;2022-11-20T00:24:21;4.80;99.90
29939;DHT22;16799;50.844;5.304;2022-11-20T00:26:47;4.80;99.90
29939;DHT22;16799;50.844;5.304;2022-11-20T00:29:12;4.90;99.90
29939;DHT22;16799;50.844;5.304;2022-11-20T00:31:38;5.00;99.90
29939;DHT22;16799;50.844;5.304;2022-11-20T00:34:03;4.90;99.90
29939;DHT22;16799;50.844;5.304;2022-11-20T00:36:33;4.90;99.90
29939;DHT22;16799;50.844;5.304;2022-11-20T00:38:59;4.80;99.90
29939;DHT22;16799;50.844;5.304;2022-11-20T00:41:26;5.00;99.90
29939;DHT22;16799;50.844;5.304;2022-11-20T00:43:53;5.00;99.90
29939;DHT22;16799;50.844;5.304;2022-11-20T00:46:21;4.90;99.90
29939;DHT22;16799;50.844;5.304;2022-11-20T00:48:47;4.80;99.90
29939;DHT22;16799;50.844;5.304;2022-11-20T00:51:16;4.80;99.90
29939;DHT22;16799;50.844;5.304;2022-11-20T00:53:43;4.90;99.90
29939;DHT22;16799;50.844;5.304;2022-11-20T00:56:13;4.50;99.90
29939;DHT22;16799;50.844;5.304;2022-11-20T00:58:41;4.50;99.90
29939;DHT22;16799;50.844;5.304;2022-11-20T01:01:11;4.60;99.90
29939;DHT22;16799;50.844;5.304;2022-11-20T01:03:42;4.30;99.90
29939;DHT22;16799;50.844;5.304;2022-11-20T01:08:36;4.30;99.90
29939;DHT22;16799;50.844;5.304;2022-11-20T01:11:11;4.20;99.90
29939;DHT22;16799;50.844;5.304;2022-11-20T01:13:38;4.20;99.90
29939;DHT22;16799;50.844;5.304;2022-11-20T01:16:16;4.50;99.90
29939;DHT22;16799;50.844;5.304;2022-11-20T01:18:44;4.70;99.90
29939;DHT22;16799;50.844;5.304;2022-11-20T01:21:17;4.70;99.90
29939;DHT22;16799;50.844;5.304;2022-11-20T01:23:43;4.70;99.90
29939;DHT22;16799;50.844;5.304;2022-11-20T01:26:12;4.40;99.90
29939;DHT22;16799;50.844;5.304;2022-11-20T01:28:39;4.10;99.90
29939;DHT22;16799;50.844;5.304;2022-11-20T01:31:21;4.00;99.90
29939;DHT22;16799;50.844;5.304;2022-11-20T01:33:49;3.90;99.90
29939;DHT22;16799;50.844;5.304;2022-11-20T01:36:16;3.80;99.90
29939;DHT22;16799;50.844;5.304;2022-11-20T01:38:42;3.70;99.90
29939;DHT22;16799;50.844;5.304;2022-11-20T01:41:08;3.60;99.90
29939;DHT22;16799;50.844;5.304;2022-11-20T01:43:35;3.60;99.90
29939;DHT22;16799;50.844;5.304;2022-11-20T01:49:00;3.60;99.90
29939;DHT22;16799;50.844;5.304;2022-11-20T01:51:44;3.50;99.90
29939;DHT22;16799;50.844;5.304;2022-11-20T01:54:21;3.50;99.90
29939;DHT22;16799;50.844;5.304;2022-11-20T01:56:51;3.50;99.90
29939;DHT22;16799;50.844;5.304;2022-11-20T01:59:19;3.60;99.90
29939;DHT22;16799;50.844;5.304;2022-11-20T02:01:45;3.70;99.90
29939;DHT22;16799;50.844;5.304;2022-11-20T02:04:12;3.70;99.90
29939;DHT22;16799;50.844;5.304;2022-11-20T02:06:49;4.00;99.90
29939;DHT22;16799;50.844;5.304;2022-11-20T02:09:15;4.00;99.90
29939;DHT22;16799;50.844;5.304;2022-11-20T02:11:41;3.80;99.90
29939;DHT22;16799;50.844;5.304;2022-11-20T02:14:08;3.80;99.90
29939;DHT22;16799;50.844;5.304;2022-11-20T02:16:40;3.70;99.90
29939;DHT22;16799;50.844;5.304;2022-11-20T02:19:16;3.70;99.90
29939;DHT22;16799;50.844;5.304;2022-11-20T02:21:53;3.70;99.90
29939;DHT22;16799;50.844;5.304;2022-11-20T02:24:22;3.60;99.90
29939;DHT22;16799;50.844;5.304;2022-11-20T02:26:59;3.60;99.90
29939;DHT22;16799;50.844;5.304;2022-11-20T02:32:26;3.60;99.90
29939;DHT22;16799;50.844;5.304;2022-11-20T02:34:52;3.50;99.90
29939;DHT22;16799;50.844;5.304;2022-11-20T02:37:18;3.60;99.90
29939;DHT22;16799;50.844;5.304;2022-11-20T02:39:46;3.60;99.90
29939;DHT22;16799;50.844;5.304;2022-11-20T02:42:13;3.60;99.90
29939;DHT22;16799;50.844;5.304;2022-11-20T02:44:39;3.50;99.90
29939;DHT22;16799;50.844;5.304;2022-11-20T02:47:04;3.40;99.90
29939;DHT22;16799;50.844;5.304;2022-11-20T02:49:30;3.40;99.90
29939;DHT22;16799;50.844;5.304;2022-11-20T02:51:56;3.40;99.90
29939;DHT22;16799;50.844;5.304;2022-11-20T02:54:22;3.40;99.90
29939;DHT22;16799;50.844;5.304;2022-11-20T02:56:47;3.40;99.90
29939;DHT22;16799;50.844;5.304;2022-11-20T02:59:13;3.40;99.90
29939;DHT22;16799;50.844;5.304;2022-11-20T03:01:39;3.40;99.90
29939;DHT22;16799;50.844;5.304;2022-11-20T03:04:04;3.40;99.90
29939;DHT22;16799;50.844;5.304;2022-11-20T03:06:30;3.40;99.90
29939;DHT22;16799;50.844;5.304;2022-11-20T03:08:56;3.30;99.90
29939;DHT22;16799;50.844;5.304;2022-11-20T03:11:21;3.30;99.90
29939;DHT22;16799;50.844;5.304;2022-11-20T03:13:47;3.40;99.90
29939;DHT22;16799;50.844;5.304;2022-11-20T03:16:15;3.40;99.90
29939;DHT22;16799;50.844;5.304;2022-11-20T03:18:42;3.30;99.90
29939;DHT22;16799;50.844;5.304;2022-11-20T03:21:09;3.30;99.90
29939;DHT22;16799;50.844;5.304;2022-11-20T03:23:35;3.30;99.90
29939;DHT22;16799;50.844;5.304;2022-11-20T03:26:23;3.30;99.90
29939;DHT22;16799;50.844;5.304;2022-11-20T03:28:54;3.20;99.90
29939;DHT22;16799;50.844;5.304;2022-11-20T03:31:22;3.20;99.90
29939;DHT22;16799;50.844;5.304;2022-11-20T03:33:48;3.20;99.90
29939;DHT22;16799;50.844;5.304;2022-11-20T03:36:15;3.20;99.90
29939;DHT22;16799;50.844;5.304;2022-11-20T03:38:41;3.20;99.90
29939;DHT22;16799;50.844;5.304;2022-11-20T03:41:13;3.20;99.90
29939;DHT22;16799;50.844;5.304;2022-11-20T03:43:39;3.20;99.90
29939;DHT22;16799;50.844;5.304;2022-11-20T03:46:05;3.20;99.90
29939;DHT22;16799;50.844;5.304;2022-11-20T03:48:31;3.30;99.90
29939;DHT22;16799;50.844;5.304;2022-11-20T03:51:10;3.30;99.90
29939;DHT22;16799;50.844;5.304;2022-11-20T03:53:36;3.20;99.90
29939;DHT22;16799;50.844;5.304;2022-11-20T03:56:02;3.20;99.90
29939;DHT22;16799;50.844;5.304;2022-11-20T03:58:27;3.20;99.90
29939;DHT22;16799;50.844;5.304;2022-11-20T04:00:53;3.20;99.90
29939;DHT22;16799;50.844;5.304;2022-11-20T04:03:18;3.20;99.90
29939;DHT22;16799;50.844;5.304;2022-11-20T04:05:44;3.20;99.90
29939;DHT22;16799;50.844;5.304;2022-11-20T04:08:10;3.20;99.90
29939;DHT22;16799;50.844;5.304;2022-11-20T04:10:35;3.20;99.90
29939;DHT22;16799;50.844;5.304;2022-11-20T04:13:01;3.20;99.90
29939;DHT22;16799;50.844;5.304;2022-11-20T04:15:26;3.20;99.90
29939;DHT22;16799;50.844;5.304;2022-11-20T04:17:53;3.20;99.90
29939;DHT22;16799;50.844;5.304;2022-11-20T04:20:20;3.20;99.90
29939;DHT22;16799;50.844;5.304;2022-11-20T04:22:45;3.20;99.90
29939;DHT22;16799;50.844;5.304;2022-11-20T04:25:11;3.20;99.90
29939;DHT22;16799;50.844;5.304;2022-11-20T04:27:37;3.20;99.90
29939;DHT22;16799;50.844;5.304;2022-11-20T04:30:03;3.20;99.90
29939;DHT22;16799;50.844;5.304;2022-11-20T04:32:29;3.20;99.90
29939;DHT22;16799;50.844;5.304;2022-11-20T04:34:54;3.20;99.90
29939;DHT22;16799;50.844;5.304;2022-11-20T04:37:20;3.20;99.90
29939;DHT22;16799;50.844;5.304;2022-11-20T04:39:45;3.30;99.90
29939;DHT22;16799;50.844;5.304;2022-11-20T04:42:11;3.30;99.90
29939;DHT22;16799;50.844;5.304;2022-11-20T04:44:56;3.30;99.90
29939;DHT22;16799;50.844;5.304;2022-11-20T04:47:21;3.30;99.90
29939;DHT22;16799;50.844;5.304;2022-11-20T04:49:47;3.40;99.90
29939;DHT22;16799;50.844;5.304;2022-11-20T04:52:13;3.50;99.90
29939;DHT22;16799;50.844;5.304;2022-11-20T04:54:38;3.60;99.90
29939;DHT22;16799;50.844;5.304;2022-11-20T04:57:04;3.60;99.90
29939;DHT22;16799;50.844;5.304;2022-11-20T04:59:30;3.70;99.90
29939;DHT22;16799;50.844;5.304;2022-11-20T05:01:55;4.00;99.90
29939;DHT22;16799;50.844;5.304;2022-11-20T05:04:21;4.10;99.90
29939;DHT22;16799;50.844;5.304;2022-11-20T05:06:46;4.10;99.90
29939;DHT22;16799;50.844;5.304;2022-11-20T05:09:13;3.90;99.90
29939;DHT22;16799;50.844;5.304;2022-11-20T05:11:38;3.80;99.90
29939;DHT22;16799;50.844;5.304;2022-11-20T05:14:04;3.80;99.90
29939;DHT22;16799;50.844;5.304;2022-11-20T05:16:30;4.00;99.90
29939;DHT22;16799;50.844;5.304;2022-11-20T05:18:56;4.00;99.90
29939;DHT22;16799;50.844;5.304;2022-11-20T05:21:21;4.10;99.90
29939;DHT22;16799;50.844;5.304;2022-11-20T05:23:48;4.10;99.90
29939;DHT22;16799;50.844;5.304;2022-11-20T05:26:20;3.80;99.90
29939;DHT22;16799;50.844;5.304;2022-11-20T05:28:47;3.70;99.90
29939;DHT22;16799;50.844;5.304;2022-11-20T05:31:16;3.70;99.90
29939;DHT22;16799;50.844;5.304;2022-11-20T05:33:43;3.70;99.90
29939;DHT22;16799;50.844;5.304;2022-11-20T05:36:10;3.60;99.90
29939;DHT22;16799;50.844;5.304;2022-11-20T05:38:36;3.60;99.90
29939;DHT22;16799;50.844;5.304;2022-11-20T05:41:13;3.60;99.90
29939;DHT22;16799;50.844;5.304;2022-11-20T05:43:42;3.90;99.90
29939;DHT22;16799;50.844;5.304;2022-11-20T05:46:09;3.90;99.90
29939;DHT22;16799;50.844;5.304;2022-11-20T05:48:35;3.90;99.90
29939;DHT22;16799;50.844;5.304;2022-11-20T05:51:03;3.90;99.90
29939;DHT22;16799;50.844;5.304;2022-11-20T05:53:29;3.80;99.90
29939;DHT22;16799;50.844;5.304;2022-11-20T05:56:04;3.80;99.90
29939;DHT22;16799;50.844;5.304;2022-11-20T05:58:31;3.80;99.90
29939;DHT22;16799;50.844;5.304;2022-11-20T06:03:32;3.80;99.90
29939;DHT22;16799;50.844;5.304;2022-11-20T06:06:02;3.80;99.90
29939;DHT22;16799;50.844;5.304;2022-11-20T06:08:28;3.80;99.90
29939;DHT22;16799;50.844;5.304;2022-11-20T06:10:53;3.90;99.90
29939;DHT22;16799;50.844;5.304;2022-11-20T06:13:19;3.80;99.90
29939;DHT22;16799;50.844;5.304;2022-11-20T06:15:49;3.70;99.90
29939;DHT22;16799;50.844;5.304;2022-11-20T06:18:15;3.60;99.90
29939;DHT22;16799;50.844;5.304;2022-11-20T06:20:41;3.60;99.90
29939;DHT22;16799;50.844;5.304;2022-11-20T06:23:06;3.60;99.90
29939;DHT22;16799;50.844;5.304;2022-11-20T06:25:32;3.70;99.90
29939;DHT22;16799;50.844;5.304;2022-11-20T06:27:58;3.70;99.90
29939;DHT22;16799;50.844;5.304;2022-11-20T06:30:23;3.80;99.90
29939;DHT22;16799;50.844;5.304;2022-11-20T06:32:49;4.00;99.90
29939;DHT22;16799;50.844;5.304;2022-11-20T06:35:14;4.00;99.90
29939;DHT22;16799;50.844;5.304;2022-11-20T06:37:40;4.20;99.90
29939;DHT22;16799;50.844;5.304;2022-11-20T06:40:06;4.30;99.90
29939;DHT22;16799;50.844;5.304;2022-11-20T06:42:32;4.30;99.90
29939;DHT22;16799;50.844;5.304;2022-11-20T06:44:58;4.40;99.90
29939;DHT22;16799;50.844;5.304;2022-11-20T06:47:23;4.50;99.90
29939;DHT22;16799;50.844;5.304;2022-11-20T06:49:49;4.60;99.90
29939;DHT22;16799;50.844;5.304;2022-11-20T06:52:15;4.60;99.90
29939;DHT22;16799;50.844;5.304;2022-11-20T06:54:40;4.50;99.90
29939;DHT22;16799;50.844;5.304;2022-11-20T06:57:06;4.60;99.90
29939;DHT22;16799;50.844;5.304;2022-11-20T06:59:31;4.60;99.90
29939;DHT22;16799;50.844;5.304;2022-11-20T07:01:57;4.60;99.90
29939;DHT22;16799;50.844;5.304;2022-11-20T07:04:22;4.70;99.90
29939;DHT22;16799;50.844;5.304;2022-11-20T07:06:48;4.80;99.90
29939;DHT22;16799;50.844;5.304;2022-11-20T07:09:14;4.80;99.90
29939;DHT22;16799;50.844;5.304;2022-11-20T07:11:39;4.80;99.90
29939;DHT22;16799;50.844;5.304;2022-11-20T07:14:05;4.80;99.90
29939;DHT22;16799;50.844;5.304;2022-11-20T07:16:31;4.80;99.90
29939;DHT22;16799;50.844;5.304;2022-11-20T07:18:56;4.90;99.90
29939;DHT22;16799;50.844;5.304;2022-11-20T07:21:22;4.90;99.90
29939;DHT22;16799;50.844;5.304;2022-11-20T07:23:47;5.00;99.90
29939;DHT22;16799;50.844;5.304;2022-11-20T07:26:13;5.00;99.90
29939;DHT22;16799;50.844;5.304;2022-11-20T07:28:39;5.00;99.90
29939;DHT22;16799;50.844;5.304;2022-11-20T07:31:05;5.10;99.90
29939;DHT22;16799;50.844;5.304;2022-11-20T07:33:32;5.10;99.90
29939;DHT22;16799;50.844;5.304;2022-11-20T07:36:01;5.20;99.90
29939;DHT22;16799;50.844;5.304;2022-11-20T07:38:27;5.20;99.90
29939;DHT22;16799;50.844;5.304;2022-11-20T07:40:56;5.10;99.90
29939;DHT22;16799;50.844;5.304;2022-11-20T07:43:23;5.30;99.90
29939;DHT22;16799;50.844;5.304;2022-11-20T07:45:48;5.30;99.90
29939;DHT22;16799;50.844;5.304;2022-11-20T07:48:14;5.30;99.90
29939;DHT22;16799;50.844;5.304;2022-11-20T07:50:40;5.50;99.90
29939;DHT22;16799;50.844;5.304;2022-11-20T07:53:06;5.60;99.90
29939;DHT22;16799;50.844;5.304;2022-11-20T07:55:32;5.60;99.90
29939;DHT22;16799;50.844;5.304;2022-11-20T07:57:58;5.70;99.90
29939;DHT22;16799;50.844;5.304;2022-11-20T08:00:24;5.70;99.90
29939;DHT22;16799;50.844;5.304;2022-11-20T08:02:50;5.70;99.90
29939;DHT22;16799;50.844;5.304;2022-11-20T08:05:16;5.80;99.90
29939;DHT22;16799;50.844;5.304;2022-11-20T08:07:43;5.90;99.90
29939;DHT22;16799;50.844;5.304;2022-11-20T08:10:10;5.90;99.90
29939;DHT22;16799;50.844;5.304;2022-11-20T08:12:43;6.00;99.90
29939;DHT22;16799;50.844;5.304;2022-11-20T08:15:28;6.00;99.90
29939;DHT22;16799;50.844;5.304;2022-11-20T08:18:03;6.10;99.90
29939;DHT22;16799;50.844;5.304;2022-11-20T08:20:29;6.10;99.90
29939;DHT22;16799;50.844;5.304;2022-11-20T08:23:02;6.20;99.90
29939;DHT22;16799;50.844;5.304;2022-11-20T08:25:30;6.20;99.90
29939;DHT22;16799;50.844;5.304;2022-11-20T08:27:59;6.20;99.90
29939;DHT22;16799;50.844;5.304;2022-11-20T08:30:25;6.20;99.90
29939;DHT22;16799;50.844;5.304;2022-11-20T08:32:51;6.10;99.90
29939;DHT22;16799;50.844;5.304;2022-11-20T08:35:17;6.00;99.90
29939;DHT22;16799;50.844;5.304;2022-11-20T08:37:46;6.00;99.90
29939;DHT22;16799;50.844;5.304;2022-11-20T08:40:12;6.00;99.90
29939;DHT22;16799;50.844;5.304;2022-11-20T08:42:46;6.20;99.90
29939;DHT22;16799;50.844;5.304;2022-11-20T08:45:11;6.20;99.90
29939;DHT22;16799;50.844;5.304;2022-11-20T08:47:37;6.40;99.90
29939;DHT22;16799;50.844;5.304;2022-11-20T08:50:03;6.30;99.90
29939;DHT22;16799;50.844;5.304;2022-11-20T08:52:28;6.20;99.90
29939;DHT22;16799;50.844;5.304;2022-11-20T08:54:54;6.30;99.90
29939;DHT22;16799;50.844;5.304;2022-11-20T08:57:20;6.50;99.90
29939;DHT22;16799;50.844;5.304;2022-11-20T08:59:45;6.70;99.90
29939;DHT22;16799;50.844;5.304;2022-11-20T09:02:11;6.90;99.90
29939;DHT22;16799;50.844;5.304;2022-11-20T09:04:37;6.80;99.90
29939;DHT22;16799;50.844;5.304;2022-11-20T09:07:03;7.00;99.90
29939;DHT22;16799;50.844;5.304;2022-11-20T09:09:28;7.10;99.90
29939;DHT22;16799;50.844;5.304;2022-11-20T09:11:54;7.10;99.90
29939;DHT22;16799;50.844;5.304;2022-11-20T09:14:20;7.00;99.90
29939;DHT22;16799;50.844;5.304;2022-11-20T09:16:46;7.00;99.90
29939;DHT22;16799;50.844;5.304;2022-11-20T09:19:12;6.90;99.90
29939;DHT22;16799;50.844;5.304;2022-11-20T09:21:37;6.90;99.90
29939;DHT22;16799;50.844;5.304;2022-11-20T09:24:04;7.00;99.90
29939;DHT22;16799;50.844;5.304;2022-11-20T09:26:30;7.10;99.90
29939;DHT22;16799;50.844;5.304;2022-11-20T09:28:56;7.20;99.90
29939;DHT22;16799;50.844;5.304;2022-11-20T09:31:23;7.30;99.90
29939;DHT22;16799;50.844;5.304;2022-11-20T09:33:49;7.40;99.90
29939;DHT22;16799;50.844;5.304;2022-11-20T09:36:15;7.30;99.90
29939;DHT22;16799;50.844;5.304;2022-11-20T09:38:42;7.20;99.90
29939;DHT22;16799;50.844;5.304;2022-11-20T09:46:42;7.20;99.90
29939;DHT22;16799;50.844;5.304;2022-11-20T09:49:51;7.40;99.90
29939;DHT22;16799;50.844;5.304;2022-11-20T09:52:41;7.50;99.90
29939;DHT22;16799;50.844;5.304;2022-11-20T09:55:12;7.60;99.90
29939;DHT22;16799;50.844;5.304;2022-11-20T09:57:40;7.60;99.90
29939;DHT22;16799;50.844;5.304;2022-11-20T10:00:12;7.50;99.90
29939;DHT22;16799;50.844;5.304;2022-11-20T10:05:56;7.70;99.90
29939;DHT22;16799;50.844;5.304;2022-11-20T10:08:28;7.70;99.90
29939;DHT22;16799;50.844;5.304;2022-11-20T10:17:19;7.80;99.90
29939;DHT22;16799;50.844;5.304;2022-11-20T10:20:12;7.80;99.90
29939;DHT22;16799;50.844;5.304;2022-11-20T10:22:54;7.80;99.90
29939;DHT22;16799;50.844;5.304;2022-11-20T10:25:46;7.90;99.90
29939;DHT22;16799;50.844;5.304;2022-11-20T10:28:27;8.20;99.90
29939;DHT22;16799;50.844;5.304;2022-11-20T10:31:08;8.30;99.90
29939;DHT22;16799;50.844;5.304;2022-11-20T10:33:41;8.20;99.90
29939;DHT22;16799;50.844;5.304;2022-11-20T10:36:21;8.40;99.90
29939;DHT22;16799;50.844;5.304;2022-11-20T10:38:58;8.40;99.90
29939;DHT22;16799;50.844;5.304;2022-11-20T10:41:40;8.60;99.90
29939;DHT22;16799;50.844;5.304;2022-11-20T10:44:17;8.70;99.90
29939;DHT22;16799;50.844;5.304;2022-11-20T10:47:16;8.80;99.90
29939;DHT22;16799;50.844;5.304;2022-11-20T10:49:45;9.00;99.90
29939;DHT22;16799;50.844;5.304;2022-11-20T11:00:11;9.10;99.90
29939;DHT22;16799;50.844;5.304;2022-11-20T11:02:51;8.90;99.90
29939;DHT22;16799;50.844;5.304;2022-11-20T11:07:49;9.10;99.90
29939;DHT22;16799;50.844;5.304;2022-11-20T11:10:28;9.20;99.90
29939;DHT22;16799;50.844;5.304;2022-11-20T11:12:57;9.20;99.90
29939;DHT22;16799;50.844;5.304;2022-11-20T11:15:40;9.40;99.90
29939;DHT22;16799;50.844;5.304;2022-11-20T11:18:10;9.40;99.90
29939;DHT22;16799;50.844;5.304;2022-11-20T11:20:36;9.40;99.90
29939;DHT22;16799;50.844;5.304;2022-11-20T11:23:02;9.30;99.90
29939;DHT22;16799;50.844;5.304;2022-11-20T11:25:36;9.40;99.90
29939;DHT22;16799;50.844;5.304;2022-11-20T11:28:21;9.50;99.90
29939;DHT22;16799;50.844;5.304;2022-11-20T11:30:47;9.50;99.90
29939;DHT22;16799;50.844;5.304;2022-11-20T11:33:24;9.60;99.90
29939;DHT22;16799;50.844;5.304;2022-11-20T11:41:00;9.70;99.90
29939;DHT22;16799;50.844;5.304;2022-11-20T11:43:30;9.90;99.90
29939;DHT22;16799;50.844;5.304;2022-11-20T11:51:58;10.10;99.90
29939;DHT22;16799;50.844;5.304;2022-11-20T11:54:33;9.50;99.90
29939;DHT22;16799;50.844;5.304;2022-11-20T11:57:03;9.40;99.90
29939;DHT22;16799;50.844;5.304;2022-11-20T12:02:27;9.90;99.90
29939;DHT22;16799;50.844;5.304;2022-11-20T12:04:59;10.30;99.90
29939;DHT22;16799;50.844;5.304;2022-11-20T12:10:39;10.30;99.90
29939;DHT22;16799;50.844;5.304;2022-11-20T12:16:14;10.40;99.90
29939;DHT22;16799;50.844;5.304;2022-11-20T12:18:41;10.30;99.90
29939;DHT22;16799;50.844;5.304;2022-11-20T12:21:18;10.20;99.90
29939;DHT22;16799;50.844;5.304;2022-11-20T12:24:13;10.10;99.90
29939;DHT22;16799;50.844;5.304;2022-11-20T12:43:58;9.90;99.90
29939;DHT22;16799;50.844;5.304;2022-11-20T12:47:18;9.80;99.90
29939;DHT22;16799;50.844;5.304;2022-11-20T12:50:14;9.80;99.90
29939;DHT22;16799;50.844;5.304;2022-11-20T12:52:56;9.80;99.90
29939;DHT22;16799;50.844;5.304;2022-11-20T12:55:31;9.80;99.90
29939;DHT22;16799;50.844;5.304;2022-11-20T13:01:03;9.40;99.90
29939;DHT22;16799;50.844;5.304;2022-11-20T13:03:38;9.20;99.90
29939;DHT22;16799;50.844;5.304;2022-11-20T13:06:17;9.20;99.90
29939;DHT22;16799;50.844;5.304;2022-11-20T13:08:50;9.00;99.90
29939;DHT22;16799;50.844;5.304;2022-11-20T13:14:11;8.80;99.90
29939;DHT22;16799;50.844;5.304;2022-11-20T13:19:36;8.70;99.90
29939;DHT22;16799;50.844;5.304;2022-11-20T13:22:02;8.70;99.90
29939;DHT22;16799;50.844;5.304;2022-11-20T13:24:30;8.50;99.90
29939;DHT22;16799;50.844;5.304;2022-11-20T13:29:30;8.60;99.90
29939;DHT22;16799;50.844;5.304;2022-11-20T13:32:12;8.70;99.90
29939;DHT22;16799;50.844;5.304;2022-11-20T13:34:39;8.60;99.90
29939;DHT22;16799;50.844;5.304;2022-11-20T13:37:43;8.70;99.90
29939;DHT22;16799;50.844;5.304;2022-11-20T13:42:46;8.40;99.90
29939;DHT22;16799;50.844;5.304;2022-11-20T13:45:26;8.50;99.90
29939;DHT22;16799;50.844;5.304;2022-11-20T13:47:53;8.50;99.90
29939;DHT22;16799;50.844;5.304;2022-11-20T13:50:27;8.40;99.90
29939;DHT22;16799;50.844;5.304;2022-11-20T14:01:28;8.30;99.90
29939;DHT22;16799;50.844;5.304;2022-11-20T14:03:55;8.20;99.90
29939;DHT22;16799;50.844;5.304;2022-11-20T14:06:30;8.20;99.90
29939;DHT22;16799;50.844;5.304;2022-11-20T14:08:58;8.20;99.90
29939;DHT22;16799;50.844;5.304;2022-11-20T14:11:32;8.20;99.90
29939;DHT22;16799;50.844;5.304;2022-11-20T14:14:17;8.30;99.90
29939;DHT22;16799;50.844;5.304;2022-11-20T14:16:43;8.20;99.90
29939;DHT22;16799;50.844;5.304;2022-11-20T14:19:30;8.10;99.90
29939;DHT22;16799;50.844;5.304;2022-11-20T14:24:43;8.10;99.90
29939;DHT22;16799;50.844;5.304;2022-11-20T14:27:19;8.10;99.90
29939;DHT22;16799;50.844;5.304;2022-11-20T14:29:47;8.00;99.90
29939;DHT22;16799;50.844;5.304;2022-11-20T14:32:21;7.90;99.90
29939;DHT22;16799;50.844;5.304;2022-11-20T14:34:49;7.80;99.90
29939;DHT22;16799;50.844;5.304;2022-11-20T14:37:24;7.80;99.90
29939;DHT22;16799;50.844;5.304;2022-11-20T14:39:55;7.80;99.90
29939;DHT22;16799;50.844;5.304;2022-11-20T14:42:26;7.80;99.90
29939;DHT22;16799;50.844;5.304;2022-11-20T14:44:55;7.90;99.90
29939;DHT22;16799;50.844;5.304;2022-11-20T14:47:25;7.80;99.90
29939;DHT22;16799;50.844;5.304;2022-11-20T14:49:52;7.80;99.90
29939;DHT22;16799;50.844;5.304;2022-11-20T14:52:24;7.80;99.90
29939;DHT22;16799;50.844;5.304;2022-11-20T14:54:58;7.80;99.90
29939;DHT22;16799;50.844;5.304;2022-11-20T14:57:35;7.80;99.90
29939;DHT22;16799;50.844;5.304;2022-11-20T15:02:42;7.90;99.90
29939;DHT22;16799;50.844;5.304;2022-11-20T15:05:08;7.90;99.90
29939;DHT22;16799;50.844;5.304;2022-11-20T15:08:07;7.90;99.90
29939;DHT22;16799;50.844;5.304;2022-11-20T15:10:34;8.00;99.90
29939;DHT22;16799;50.844;5.304;2022-11-20T15:13:03;7.90;99.90
29939;DHT22;16799;50.844;5.304;2022-11-20T15:15:35;7.90;99.90
29939;DHT22;16799;50.844;5.304;2022-11-20T15:18:02;7.90;99.90
29939;DHT22;16799;50.844;5.304;2022-11-20T15:20:31;7.90;99.90
29939;DHT22;16799;50.844;5.304;2022-11-20T15:22:57;7.80;99.90
29939;DHT22;16799;50.844;5.304;2022-11-20T15:25:23;7.80;99.90
29939;DHT22;16799;50.844;5.304;2022-11-20T15:27:54;7.80;99.90
29939;DHT22;16799;50.844;5.304;2022-11-20T15:30:21;7.80;99.90
29939;DHT22;16799;50.844;5.304;2022-11-20T15:32:46;7.80;99.90
29939;DHT22;16799;50.844;5.304;2022-11-20T15:35:13;7.80;99.90
29939;DHT22;16799;50.844;5.304;2022-11-20T15:37:39;7.80;99.90
29939;DHT22;16799;50.844;5.304;2022-11-20T15:40:06;7.70;99.90
29939;DHT22;16799;50.844;5.304;2022-11-20T15:42:32;7.70;99.90
29939;DHT22;16799;50.844;5.304;2022-11-20T15:44:58;7.70;99.90
29939;DHT22;16799;50.844;5.304;2022-11-20T15:47:30;7.80;99.90
29939;DHT22;16799;50.844;5.304;2022-11-20T15:49:56;7.80;99.90
29939;DHT22;16799;50.844;5.304;2022-11-20T15:52:22;7.80;99.90
29939;DHT22;16799;50.844;5.304;2022-11-20T15:54:48;7.70;99.90
29939;DHT22;16799;50.844;5.304;2022-11-20T15:57:13;7.70;99.90
29939;DHT22;16799;50.844;5.304;2022-11-20T15:59:39;7.70;99.90
29939;DHT22;16799;50.844;5.304;2022-11-20T16:02:11;7.70;99.90
29939;DHT22;16799;50.844;5.304;2022-11-20T16:04:37;7.70;99.90
29939;DHT22;16799;50.844;5.304;2022-11-20T16:07:03;7.70;99.90
29939;DHT22;16799;50.844;5.304;2022-11-20T16:09:29;7.60;99.90
29939;DHT22;16799;50.844;5.304;2022-11-20T16:11:55;7.60;99.90
29939;DHT22;16799;50.844;5.304;2022-11-20T16:14:20;7.60;99.90
29939;DHT22;16799;50.844;5.304;2022-11-20T16:17:04;7.60;99.90
29939;DHT22;16799;50.844;5.304;2022-11-20T16:19:30;7.60;99.90
29939;DHT22;16799;50.844;5.304;2022-11-20T16:21:57;7.70;99.90
29939;DHT22;16799;50.844;5.304;2022-11-20T16:24:23;7.80;99.90
29939;DHT22;16799;50.844;5.304;2022-11-20T16:26:49;7.80;99.90
29939;DHT22;16799;50.844;5.304;2022-11-20T16:29:14;7.80;99.90
29939;DHT22;16799;50.844;5.304;2022-11-20T16:31:40;7.80;99.90
29939;DHT22;16799;50.844;5.304;2022-11-20T16:34:07;7.80;99.90
29939;DHT22;16799;50.844;5.304;2022-11-20T16:36:33;7.90;99.90
29939;DHT22;16799;50.844;5.304;2022-11-20T16:39:00;7.80;99.90
29939;DHT22;16799;50.844;5.304;2022-11-20T16:41:29;7.90;99.90
29939;DHT22;16799;50.844;5.304;2022-11-20T16:43:57;7.90;99.90
29939;DHT22;16799;50.844;5.304;2022-11-20T16:46:25;8.00;99.90
29939;DHT22;16799;50.844;5.304;2022-11-20T16:48:58;7.90;99.90
29939;DHT22;16799;50.844;5.304;2022-11-20T16:51:26;8.00;99.90
29939;DHT22;16799;50.844;5.304;2022-11-20T16:53:52;8.00;99.90
29939;DHT22;16799;50.844;5.304;2022-11-20T16:56:22;8.00;99.90
29939;DHT22;16799;50.844;5.304;2022-11-20T16:58:49;8.00;99.90
29939;DHT22;16799;50.844;5.304;2022-11-20T17:01:20;8.00;99.90
29939;DHT22;16799;50.844;5.304;2022-11-20T17:03:53;8.00;99.90
29939;DHT22;16799;50.844;5.304;2022-11-20T17:06:22;8.00;99.90
29939;DHT22;16799;50.844;5.304;2022-11-20T17:08:48;8.00;99.90
29939;DHT22;16799;50.844;5.304;2022-11-20T17:11:16;7.90;99.90
29939;DHT22;16799;50.844;5.304;2022-11-20T17:13:43;7.90;99.90
29939;DHT22;16799;50.844;5.304;2022-11-20T17:16:11;7.90;99.90
29939;DHT22;16799;50.844;5.304;2022-11-20T17:18:37;7.80;99.90
29939;DHT22;16799;50.844;5.304;2022-11-20T17:21:04;7.90;99.90
29939;DHT22;16799;50.844;5.304;2022-11-20T17:23:35;7.90;99.90
29939;DHT22;16799;50.844;5.304;2022-11-20T17:28:32;7.80;99.90
29939;DHT22;16799;50.844;5.304;2022-11-20T17:31:03;7.80;99.90
29939;DHT22;16799;50.844;5.304;2022-11-20T17:33:29;7.80;99.90
29939;DHT22;16799;50.844;5.304;2022-11-20T17:35:55;7.80;99.90
29939;DHT22;16799;50.844;5.304;2022-11-20T17:38:21;7.70;99.90
29939;DHT22;16799;50.844;5.304;2022-11-20T17:40:47;7.80;99.90